Les instructeurs




Michel Ricotier - Ancien Pilote de ligne à Air France, 37 ans de compagnie. Copilote sur Caravelle, Boeing 707 et Boeing 747. Commandant à la Postale de nuit sur Fokker 27. L'ancienneté aidant, retour sur son terrain de jeu favori le long courrier, comme Commandant de bord Boeing 747-200, le classique le vrai 747 ! 20000 heures de vol plus tard, 2007 the End.
Instructeur bénévole à l'aéroclub et Examinateur, il concilie le plaisir de voler et le désir de partager son expérience.

Webcam :

Nuit aéronautique

25 Sep 2018

Heure locale,
pour LFDL uniquement.

Lever du soleil aéronautique :07:22
Lever du soleil :07:52
Coucher du soleil :19:50
Coucher du soleil aéronautique :20:20

Metar

LFBI :
2018/09/25 05:00
LFBI 250500Z AUTO 03008KT CAVOK 07/04 Q1033 NOSIG
LFBI :
Poitiers, France (LFBI) 46-35N 000-19E 120M
Sep 25, 2018 - 01:00 AM EDT / 2018.09.25 0500 UTC
Wind: from the NNE (030 degrees) at 9 MPH (8 KT):0
Visibility: greater than 7 mile(s):0
Temperature: 44 F (7 C)
Dew Point: 39 F (4 C)
Relative Humidity: 81%
Pressure (altimeter): 30.50 in. Hg (1033 hPa)
ob: LFBI 250500Z AUTO 03008KT CAVOK 07/04 Q1033 NOSIG
cycle: 5

Afficher le metar d'une autre station :
Code OACI :

Aéroclub de Loudun


Bellevue
86200 Loudun


Contacter Michel Richez (président)

  • Mail:michel.richez@free.fr
  • Tel:09-50-38-02-06
  • Mobile:06-52-73-09-01



agrandir le plan

Newsletter

Mon e-mail :